sensor_id;sensor_type;location;lat;lon;timestamp;P1;durP1;ratioP1;P2;durP2;ratioP2
24301;SDS011;12421;49.732;20.078;2022-12-07T00:01:59;9.50;;;5.10;;
24301;SDS011;12421;49.732;20.078;2022-12-07T00:12:04;8.70;;;5.60;;
24301;SDS011;12421;49.732;20.078;2022-12-07T00:22:08;9.80;;;6.00;;
24301;SDS011;12421;49.732;20.078;2022-12-07T00:32:12;7.60;;;5.30;;
24301;SDS011;12421;49.732;20.078;2022-12-07T00:42:16;8.20;;;4.60;;
24301;SDS011;12421;49.732;20.078;2022-12-07T00:52:20;11.20;;;6.30;;
24301;SDS011;12421;49.732;20.078;2022-12-07T01:02:24;11.90;;;6.20;;
24301;SDS011;12421;49.732;20.078;2022-12-07T01:12:28;8.20;;;5.20;;
24301;SDS011;12421;49.732;20.078;2022-12-07T01:22:35;7.10;;;4.50;;
24301;SDS011;12421;49.732;20.078;2022-12-07T01:32:43;8.90;;;5.20;;
24301;SDS011;12421;49.732;20.078;2022-12-07T01:42:47;7.40;;;4.30;;
24301;SDS011;12421;49.732;20.078;2022-12-07T01:52:51;6.90;;;3.80;;
24301;SDS011;12421;49.732;20.078;2022-12-07T02:03:07;5.50;;;3.40;;
24301;SDS011;12421;49.732;20.078;2022-12-07T02:13:16;5.40;;;2.80;;
24301;SDS011;12421;49.732;20.078;2022-12-07T02:33:47;5.60;;;3.10;;
24301;SDS011;12421;49.732;20.078;2022-12-07T02:43:59;4.70;;;2.30;;
24301;SDS011;12421;49.732;20.078;2022-12-07T02:54:14;3.50;;;2.60;;
24301;SDS011;12421;49.732;20.078;2022-12-07T03:04:25;4.90;;;3.00;;
24301;SDS011;12421;49.732;20.078;2022-12-07T03:14:40;5.20;;;2.30;;
24301;SDS011;12421;49.732;20.078;2022-12-07T03:24:50;6.80;;;2.80;;
24301;SDS011;12421;49.732;20.078;2022-12-07T03:35:02;4.70;;;2.70;;
24301;SDS011;12421;49.732;20.078;2022-12-07T03:45:08;4.50;;;2.60;;
24301;SDS011;12421;49.732;20.078;2022-12-07T03:55:25;3.30;;;2.50;;
24301;SDS011;12421;49.732;20.078;2022-12-07T04:05:32;3.60;;;2.30;;
24301;SDS011;12421;49.732;20.078;2022-12-07T04:15:36;4.50;;;2.70;;
24301;SDS011;12421;49.732;20.078;2022-12-07T04:25:40;4.10;;;2.60;;
24301;SDS011;12421;49.732;20.078;2022-12-07T04:35:44;6.10;;;2.50;;
24301;SDS011;12421;49.732;20.078;2022-12-07T04:45:48;3.60;;;2.10;;
24301;SDS011;12421;49.732;20.078;2022-12-07T04:55:52;6.60;;;2.60;;
24301;SDS011;12421;49.732;20.078;2022-12-07T05:05:55;4.50;;;3.00;;
24301;SDS011;12421;49.732;20.078;2022-12-07T05:15:59;4.30;;;2.80;;
24301;SDS011;12421;49.732;20.078;2022-12-07T05:26:04;5.70;;;2.60;;
24301;SDS011;12421;49.732;20.078;2022-12-07T05:36:08;5.40;;;3.40;;
24301;SDS011;12421;49.732;20.078;2022-12-07T05:46:12;5.60;;;3.80;;
24301;SDS011;12421;49.732;20.078;2022-12-07T05:56:16;5.60;;;3.80;;
24301;SDS011;12421;49.732;20.078;2022-12-07T06:06:20;6.00;;;3.70;;
24301;SDS011;12421;49.732;20.078;2022-12-07T06:16:24;6.30;;;4.20;;
24301;SDS011;12421;49.732;20.078;2022-12-07T06:26:28;6.40;;;4.40;;
24301;SDS011;12421;49.732;20.078;2022-12-07T06:36:32;8.50;;;4.20;;
24301;SDS011;12421;49.732;20.078;2022-12-07T06:46:36;7.70;;;5.30;;
24301;SDS011;12421;49.732;20.078;2022-12-07T06:56:40;9.00;;;5.70;;
24301;SDS011;12421;49.732;20.078;2022-12-07T07:06:45;11.70;;;7.70;;
24301;SDS011;12421;49.732;20.078;2022-12-07T07:16:50;12.20;;;6.80;;
24301;SDS011;12421;49.732;20.078;2022-12-07T07:26:54;9.30;;;6.40;;
24301;SDS011;12421;49.732;20.078;2022-12-07T07:36:58;11.70;;;8.30;;
24301;SDS011;12421;49.732;20.078;2022-12-07T07:47:02;9.30;;;7.10;;
24301;SDS011;12421;49.732;20.078;2022-12-07T07:57:08;9.70;;;6.90;;
24301;SDS011;12421;49.732;20.078;2022-12-07T08:07:12;13.80;;;8.50;;
24301;SDS011;12421;49.732;20.078;2022-12-07T08:17:17;18.90;;;10.00;;
24301;SDS011;12421;49.732;20.078;2022-12-07T08:27:20;9.60;;;6.00;;
24301;SDS011;12421;49.732;20.078;2022-12-07T08:37:27;10.50;;;6.60;;
24301;SDS011;12421;49.732;20.078;2022-12-07T08:47:31;9.50;;;5.80;;
24301;SDS011;12421;49.732;20.078;2022-12-07T08:57:37;8.70;;;5.50;;
24301;SDS011;12421;49.732;20.078;2022-12-07T09:07:43;9.20;;;6.30;;
24301;SDS011;12421;49.732;20.078;2022-12-07T09:17:49;13.20;;;8.70;;
24301;SDS011;12421;49.732;20.078;2022-12-07T09:27:56;12.90;;;8.60;;
24301;SDS011;12421;49.732;20.078;2022-12-07T09:38:01;9.40;;;5.70;;
24301;SDS011;12421;49.732;20.078;2022-12-07T09:48:08;13.00;;;6.80;;
24301;SDS011;12421;49.732;20.078;2022-12-07T09:58:23;8.30;;;5.70;;
24301;SDS011;12421;49.732;20.078;2022-12-07T10:08:32;9.10;;;5.90;;
24301;SDS011;12421;49.732;20.078;2022-12-07T10:18:40;8.60;;;5.40;;
24301;SDS011;12421;49.732;20.078;2022-12-07T10:28:45;7.50;;;4.70;;
24301;SDS011;12421;49.732;20.078;2022-12-07T10:38:52;9.80;;;5.70;;
24301;SDS011;12421;49.732;20.078;2022-12-07T10:49:17;8.00;;;5.50;;
24301;SDS011;12421;49.732;20.078;2022-12-07T11:00:01;14.20;;;6.80;;
24301;SDS011;12421;49.732;20.078;2022-12-07T11:20:39;11.00;;;7.00;;
24301;SDS011;12421;49.732;20.078;2022-12-07T11:41:13;10.90;;;6.50;;
24301;SDS011;12421;49.732;20.078;2022-12-07T11:51:24;11.50;;;5.50;;
24301;SDS011;12421;49.732;20.078;2022-12-07T12:33:29;16.80;;;10.80;;
24301;SDS011;12421;49.732;20.078;2022-12-07T12:43:48;11.90;;;7.80;;
24301;SDS011;12421;49.732;20.078;2022-12-07T12:54:05;27.70;;;15.90;;
24301;SDS011;12421;49.732;20.078;2022-12-07T13:04:28;30.90;;;18.00;;
24301;SDS011;12421;49.732;20.078;2022-12-07T13:14:55;22.50;;;14.00;;
24301;SDS011;12421;49.732;20.078;2022-12-07T13:55:51;17.70;;;9.70;;
24301;SDS011;12421;49.732;20.078;2022-12-07T14:16:33;11.30;;;8.30;;
24301;SDS011;12421;49.732;20.078;2022-12-07T14:26:39;13.30;;;8.90;;
24301;SDS011;12421;49.732;20.078;2022-12-07T14:36:44;12.40;;;6.90;;
24301;SDS011;12421;49.732;20.078;2022-12-07T14:46:48;12.60;;;7.70;;
24301;SDS011;12421;49.732;20.078;2022-12-07T14:57:13;21.70;;;10.90;;
24301;SDS011;12421;49.732;20.078;2022-12-07T15:07:20;19.80;;;12.30;;
24301;SDS011;12421;49.732;20.078;2022-12-07T15:17:25;22.60;;;12.10;;
24301;SDS011;12421;49.732;20.078;2022-12-07T15:27:34;15.00;;;8.60;;
24301;SDS011;12421;49.732;20.078;2022-12-07T15:37:38;11.50;;;7.60;;
24301;SDS011;12421;49.732;20.078;2022-12-07T15:47:43;19.70;;;11.40;;
24301;SDS011;12421;49.732;20.078;2022-12-07T15:58:10;18.50;;;10.60;;
24301;SDS011;12421;49.732;20.078;2022-12-07T16:08:14;29.20;;;15.60;;
24301;SDS011;12421;49.732;20.078;2022-12-07T16:18:18;24.90;;;13.10;;
24301;SDS011;12421;49.732;20.078;2022-12-07T16:28:22;21.80;;;13.20;;
24301;SDS011;12421;49.732;20.078;2022-12-07T16:38:26;13.50;;;9.40;;
24301;SDS011;12421;49.732;20.078;2022-12-07T16:48:31;19.50;;;11.20;;
24301;SDS011;12421;49.732;20.078;2022-12-07T16:58:35;13.80;;;8.20;;
24301;SDS011;12421;49.732;20.078;2022-12-07T17:08:40;15.80;;;10.80;;
24301;SDS011;12421;49.732;20.078;2022-12-07T17:18:45;16.10;;;10.70;;
24301;SDS011;12421;49.732;20.078;2022-12-07T17:28:49;19.70;;;11.80;;
24301;SDS011;12421;49.732;20.078;2022-12-07T17:38:54;14.20;;;9.60;;
24301;SDS011;12421;49.732;20.078;2022-12-07T17:48:58;20.30;;;12.00;;
24301;SDS011;12421;49.732;20.078;2022-12-07T17:59:07;18.80;;;11.00;;
24301;SDS011;12421;49.732;20.078;2022-12-07T18:09:14;19.00;;;12.80;;
24301;SDS011;12421;49.732;20.078;2022-12-07T18:19:18;19.80;;;13.40;;
24301;SDS011;12421;49.732;20.078;2022-12-07T18:29:50;14.50;;;9.60;;
24301;SDS011;12421;49.732;20.078;2022-12-07T18:39:57;16.70;;;11.10;;
24301;SDS011;12421;49.732;20.078;2022-12-07T18:50:05;16.90;;;11.60;;
24301;SDS011;12421;49.732;20.078;2022-12-07T19:00:11;23.00;;;14.50;;
24301;SDS011;12421;49.732;20.078;2022-12-07T19:10:18;23.20;;;15.10;;
24301;SDS011;12421;49.732;20.078;2022-12-07T19:20:25;27.30;;;14.90;;
24301;SDS011;12421;49.732;20.078;2022-12-07T19:30:32;32.60;;;19.20;;
24301;SDS011;12421;49.732;20.078;2022-12-07T19:40:41;29.70;;;17.60;;
24301;SDS011;12421;49.732;20.078;2022-12-07T19:50:46;40.20;;;21.80;;
24301;SDS011;12421;49.732;20.078;2022-12-07T20:00:53;43.90;;;24.40;;
24301;SDS011;12421;49.732;20.078;2022-12-07T20:11:01;42.70;;;23.20;;
24301;SDS011;12421;49.732;20.078;2022-12-07T20:21:30;30.60;;;18.30;;
24301;SDS011;12421;49.732;20.078;2022-12-07T20:31:37;19.10;;;10.60;;
24301;SDS011;12421;49.732;20.078;2022-12-07T20:41:45;17.60;;;11.00;;
24301;SDS011;12421;49.732;20.078;2022-12-07T20:52:09;16.40;;;10.30;;
24301;SDS011;12421;49.732;20.078;2022-12-07T21:02:16;12.70;;;7.70;;
24301;SDS011;12421;49.732;20.078;2022-12-07T21:12:22;15.50;;;9.20;;
24301;SDS011;12421;49.732;20.078;2022-12-07T21:22:27;14.10;;;7.00;;
24301;SDS011;12421;49.732;20.078;2022-12-07T21:32:31;10.70;;;5.60;;
24301;SDS011;12421;49.732;20.078;2022-12-07T21:42:35;9.10;;;5.60;;
24301;SDS011;12421;49.732;20.078;2022-12-07T21:52:39;8.00;;;5.00;;
24301;SDS011;12421;49.732;20.078;2022-12-07T22:02:45;8.20;;;5.40;;
24301;SDS011;12421;49.732;20.078;2022-12-07T22:12:50;9.50;;;5.90;;
24301;SDS011;12421;49.732;20.078;2022-12-07T22:22:54;7.20;;;4.30;;
24301;SDS011;12421;49.732;20.078;2022-12-07T22:32:58;7.00;;;3.80;;
24301;SDS011;12421;49.732;20.078;2022-12-07T22:43:02;6.40;;;3.90;;
24301;SDS011;12421;49.732;20.078;2022-12-07T22:53:06;8.20;;;4.20;;
24301;SDS011;12421;49.732;20.078;2022-12-07T23:03:10;5.20;;;3.70;;
24301;SDS011;12421;49.732;20.078;2022-12-07T23:13:18;7.10;;;4.10;;
24301;SDS011;12421;49.732;20.078;2022-12-07T23:23:34;6.20;;;3.80;;
24301;SDS011;12421;49.732;20.078;2022-12-07T23:33:38;6.60;;;4.20;;
24301;SDS011;12421;49.732;20.078;2022-12-07T23:43:43;6.30;;;4.20;;
24301;SDS011;12421;49.732;20.078;2022-12-07T23:53:48;7.30;;;4.60;;
